sensor_id;sensor_type;location;lat;lon;timestamp;pressure;altitude;pressure_sealevel;temperature;humidity
65983;BME280;52740;40.620;-8.640;2022-10-13T00:01:48;102142.66;;;16.02;100.00
65983;BME280;52740;40.620;-8.640;2022-10-13T00:03:49;102150.22;;;16.05;100.00
65983;BME280;52740;40.620;-8.640;2022-10-13T00:05:56;102135.16;;;16.02;100.00
65983;BME280;52740;40.620;-8.640;2022-10-13T00:07:57;102124.41;;;15.97;100.00
65983;BME280;52740;40.620;-8.640;2022-10-13T00:09:58;102136.00;;;16.06;100.00
65983;BME280;52740;40.620;-8.640;2022-10-13T00:11:58;102134.44;;;16.05;100.00
65983;BME280;52740;40.620;-8.640;2022-10-13T00:14:01;102131.19;;;16.00;100.00
65983;BME280;52740;40.620;-8.640;2022-10-13T00:16:03;102124.09;;;16.02;100.00
65983;BME280;52740;40.620;-8.640;2022-10-13T00:18:04;102121.88;;;16.11;100.00
65983;BME280;52740;40.620;-8.640;2022-10-13T00:20:05;102126.16;;;16.05;100.00
65983;BME280;52740;40.620;-8.640;2022-10-13T00:22:07;102131.34;;;16.10;100.00
65983;BME280;52740;40.620;-8.640;2022-10-13T00:24:09;102132.03;;;16.04;100.00
65983;BME280;52740;40.620;-8.640;2022-10-13T00:26:19;102138.38;;;16.04;100.00
65983;BME280;52740;40.620;-8.640;2022-10-13T00:28:32;102132.53;;;16.09;100.00
65983;BME280;52740;40.620;-8.640;2022-10-13T00:30:39;102128.97;;;16.09;100.00
65983;BME280;52740;40.620;-8.640;2022-10-13T00:32:40;102134.53;;;16.12;100.00
65983;BME280;52740;40.620;-8.640;2022-10-13T00:34:45;102134.50;;;16.09;100.00
65983;BME280;52740;40.620;-8.640;2022-10-13T00:36:58;102126.59;;;16.11;100.00
65983;BME280;52740;40.620;-8.640;2022-10-13T00:39:00;102135.28;;;16.09;100.00
65983;BME280;52740;40.620;-8.640;2022-10-13T00:41:01;102132.84;;;16.04;100.00
65983;BME280;52740;40.620;-8.640;2022-10-13T00:43:01;102141.94;;;16.05;100.00
65983;BME280;52740;40.620;-8.640;2022-10-13T00:47:26;102141.53;;;16.06;100.00
65983;BME280;52740;40.620;-8.640;2022-10-13T00:49:54;102136.00;;;16.06;100.00
65983;BME280;52740;40.620;-8.640;2022-10-13T00:51:58;102150.22;;;16.05;100.00
65983;BME280;52740;40.620;-8.640;2022-10-13T00:54:00;102142.66;;;16.02;100.00
65983;BME280;52740;40.620;-8.640;2022-10-13T00:56:22;102145.00;;;16.00;100.00
65983;BME280;52740;40.620;-8.640;2022-10-13T00:58:26;102147.41;;;16.01;100.00
65983;BME280;52740;40.620;-8.640;2022-10-13T01:00:34;102150.56;;;16.03;100.00
65983;BME280;52740;40.620;-8.640;2022-10-13T01:02:41;102151.03;;;16.05;100.00
65983;BME280;52740;40.620;-8.640;2022-10-13T01:04:49;102139.03;;;15.98;100.00
65983;BME280;52740;40.620;-8.640;2022-10-13T01:06:51;102147.81;;;16.03;100.00
65983;BME280;52740;40.620;-8.640;2022-10-13T01:08:57;102152.53;;;16.03;100.00
65983;BME280;52740;40.620;-8.640;2022-10-13T01:13:29;102141.69;;;15.91;100.00
65983;BME280;52740;40.620;-8.640;2022-10-13T01:24:46;102162.00;;;16.02;100.00
65983;BME280;52740;40.620;-8.640;2022-10-13T01:31:35;102159.22;;;16.02;100.00
65983;BME280;52740;40.620;-8.640;2022-10-13T01:33:51;102158.00;;;15.99;100.00
65983;BME280;52740;40.620;-8.640;2022-10-13T01:35:56;102167.59;;;16.05;100.00
65983;BME280;52740;40.620;-8.640;2022-10-13T01:38:32;102163.25;;;16.04;100.00
65983;BME280;52740;40.620;-8.640;2022-10-13T01:45:21;102156.47;;;16.02;100.00
65983;BME280;52740;40.620;-8.640;2022-10-13T01:47:26;102144.50;;;15.94;100.00
65983;BME280;52740;40.620;-8.640;2022-10-13T01:49:32;102150.16;;;16.01;100.00
65983;BME280;52740;40.620;-8.640;2022-10-13T01:51:34;102154.59;;;16.06;100.00
65983;BME280;52740;40.620;-8.640;2022-10-13T01:53:36;102152.53;;;16.03;100.00
65983;BME280;52740;40.620;-8.640;2022-10-13T01:55:48;102145.41;;;16.02;100.00
65983;BME280;52740;40.620;-8.640;2022-10-13T01:57:49;102150.16;;;16.01;100.00
65983;BME280;52740;40.620;-8.640;2022-10-13T01:59:50;102164.84;;;16.05;100.00
65983;BME280;52740;40.620;-8.640;2022-10-13T02:02:02;102167.59;;;16.05;100.00
65983;BME280;52740;40.620;-8.640;2022-10-13T02:06:43;102171.84;;;15.99;100.00
65983;BME280;52740;40.620;-8.640;2022-10-13T02:08:49;102171.53;;;16.04;100.00
65983;BME280;52740;40.620;-8.640;2022-10-13T02:11:09;102166.41;;;16.06;100.00
65983;BME280;52740;40.620;-8.640;2022-10-13T02:13:13;102162.00;;;16.02;100.00
65983;BME280;52740;40.620;-8.640;2022-10-13T02:15:22;102160.03;;;16.02;100.00
65983;BME280;52740;40.620;-8.640;2022-10-13T02:17:25;102169.13;;;16.03;100.00
65983;BME280;52740;40.620;-8.640;2022-10-13T02:19:30;102165.16;;;16.00;100.00
65983;BME280;52740;40.620;-8.640;2022-10-13T02:21:32;102167.53;;;16.02;100.00
65983;BME280;52740;40.620;-8.640;2022-10-13T02:23:35;102163.84;;;15.94;100.00
65983;BME280;52740;40.620;-8.640;2022-10-13T02:25:36;102164.41;;;16.03;100.00
65983;BME280;52740;40.620;-8.640;2022-10-13T02:27:38;102173.44;;;16.00;100.00
65983;BME280;52740;40.620;-8.640;2022-10-13T02:29:55;102160.47;;;16.04;100.00
65983;BME280;52740;40.620;-8.640;2022-10-13T02:31:59;102161.59;;;16.00;100.00
65983;BME280;52740;40.620;-8.640;2022-10-13T02:34:00;102157.28;;;16.02;100.00
65983;BME280;52740;40.620;-8.640;2022-10-13T02:36:01;102162.88;;;16.06;100.00
65983;BME280;52740;40.620;-8.640;2022-10-13T02:38:02;102161.31;;;16.08;100.00
65983;BME280;52740;40.620;-8.640;2022-10-13T02:40:03;102168.16;;;16.14;100.00
65983;BME280;52740;40.620;-8.640;2022-10-13T02:42:04;102166.16;;;16.15;100.00
65983;BME280;52740;40.620;-8.640;2022-10-13T02:44:06;102157.09;;;16.14;100.00
65983;BME280;52740;40.620;-8.640;2022-10-13T02:46:18;102170.53;;;16.16;100.00
65983;BME280;52740;40.620;-8.640;2022-10-13T02:48:19;102168.50;;;16.13;100.00
65983;BME280;52740;40.620;-8.640;2022-10-13T02:50:20;102162.19;;;16.12;100.00
65983;BME280;52740;40.620;-8.640;2022-10-13T02:52:23;102168.16;;;16.14;100.00
65983;BME280;52740;40.620;-8.640;2022-10-13T02:54:24;102169.38;;;16.17;100.00
65983;BME280;52740;40.620;-8.640;2022-10-13T02:56:25;102164.66;;;16.17;100.00
65983;BME280;52740;40.620;-8.640;2022-10-13T02:58:39;102164.66;;;16.17;100.00
65983;BME280;52740;40.620;-8.640;2022-10-13T03:00:45;102166.91;;;16.12;100.00
65983;BME280;52740;40.620;-8.640;2022-10-13T03:02:46;102170.03;;;16.10;100.00
65983;BME280;52740;40.620;-8.640;2022-10-13T03:04:48;102174.03;;;16.13;100.00
65983;BME280;52740;40.620;-8.640;2022-10-13T03:06:50;102182.63;;;16.08;100.00
65983;BME280;52740;40.620;-8.640;2022-10-13T03:08:50;102184.59;;;16.07;100.00
65983;BME280;52740;40.620;-8.640;2022-10-13T03:10:51;102182.59;;;16.04;100.00
65983;BME280;52740;40.620;-8.640;2022-10-13T03:12:53;102184.91;;;16.02;100.00
65983;BME280;52740;40.620;-8.640;2022-10-13T03:14:54;102181.78;;;16.04;100.00
65983;BME280;52740;40.620;-8.640;2022-10-13T03:16:55;102176.63;;;16.02;100.00
65983;BME280;52740;40.620;-8.640;2022-10-13T03:18:55;102173.78;;;15.99;100.00
65983;BME280;52740;40.620;-8.640;2022-10-13T03:21:01;102179.81;;;16.04;100.00
65983;BME280;52740;40.620;-8.640;2022-10-13T03:23:02;102186.22;;;16.08;100.00
65983;BME280;52740;40.620;-8.640;2022-10-13T03:25:03;102172.38;;;16.08;100.00
65983;BME280;52740;40.620;-8.640;2022-10-13T03:27:04;102170.66;;;16.00;100.00
65983;BME280;52740;40.620;-8.640;2022-10-13T03:29:04;102182.16;;;16.02;100.00
65983;BME280;52740;40.620;-8.640;2022-10-13T03:31:07;102182.44;;;15.97;100.00
65983;BME280;52740;40.620;-8.640;2022-10-13T03:33:09;102181.28;;;15.98;100.00
65983;BME280;52740;40.620;-8.640;2022-10-13T03:35:09;102179.28;;;15.95;100.00
65983;BME280;52740;40.620;-8.640;2022-10-13T03:37:10;102172.13;;;15.94;100.00
65983;BME280;52740;40.620;-8.640;2022-10-13T03:39:15;102176.06;;;15.93;100.00
65983;BME280;52740;40.620;-8.640;2022-10-13T03:41:16;102180.00;;;15.92;100.00
65983;BME280;52740;40.620;-8.640;2022-10-13T03:43:45;102182.78;;;15.92;100.00
65983;BME280;52740;40.620;-8.640;2022-10-13T03:46:00;102190.91;;;15.85;100.00
65983;BME280;52740;40.620;-8.640;2022-10-13T03:48:01;102185.69;;;15.80;100.00
65983;BME280;52740;40.620;-8.640;2022-10-13T03:50:15;102195.16;;;15.79;100.00
65983;BME280;52740;40.620;-8.640;2022-10-13T03:52:18;102191.53;;;15.75;100.00
65983;BME280;52740;40.620;-8.640;2022-10-13T03:54:19;102199.63;;;15.64;100.00
65983;BME280;52740;40.620;-8.640;2022-10-13T03:56:24;102209.50;;;15.65;100.00
65983;BME280;52740;40.620;-8.640;2022-10-13T03:58:25;102210.22;;;15.62;100.00
65983;BME280;52740;40.620;-8.640;2022-10-13T04:00:27;102212.28;;;15.65;100.00
65983;BME280;52740;40.620;-8.640;2022-10-13T04:02:28;102209.13;;;15.67;100.00
65983;BME280;52740;40.620;-8.640;2022-10-13T04:04:32;102207.97;;;15.68;100.00
65983;BME280;52740;40.620;-8.640;2022-10-13T04:06:32;102205.28;;;15.71;100.00
65983;BME280;52740;40.620;-8.640;2022-10-13T04:08:33;102206.56;;;15.77;100.00
65983;BME280;52740;40.620;-8.640;2022-10-13T04:10:34;102201.22;;;15.65;100.00
65983;BME280;52740;40.620;-8.640;2022-10-13T04:12:34;102210.31;;;15.66;100.00
65983;BME280;52740;40.620;-8.640;2022-10-13T04:14:35;102211.59;;;15.72;100.00
65983;BME280;52740;40.620;-8.640;2022-10-13T04:16:41;102214.34;;;15.72;100.00
65983;BME280;52740;40.620;-8.640;2022-10-13T04:18:43;102209.69;;;15.76;100.00
65983;BME280;52740;40.620;-8.640;2022-10-13T04:20:44;102210.38;;;15.69;100.00
65983;BME280;52740;40.620;-8.640;2022-10-13T04:22:44;102204.09;;;15.72;100.00
65983;BME280;52740;40.620;-8.640;2022-10-13T04:24:45;102218.84;;;15.80;100.00
65983;BME280;52740;40.620;-8.640;2022-10-13T04:26:46;102215.22;;;15.76;100.00
65983;BME280;52740;40.620;-8.640;2022-10-13T04:28:47;102215.97;;;15.73;100.00
65983;BME280;52740;40.620;-8.640;2022-10-13T04:30:49;102218.22;;;15.67;100.00
65983;BME280;52740;40.620;-8.640;2022-10-13T04:32:49;102223.09;;;15.74;100.00
65983;BME280;52740;40.620;-8.640;2022-10-13T04:34:50;102212.84;;;15.74;100.00
65983;BME280;52740;40.620;-8.640;2022-10-13T04:36:51;102226.22;;;15.72;100.00
65983;BME280;52740;40.620;-8.640;2022-10-13T04:38:53;102225.00;;;15.70;100.00
65983;BME280;52740;40.620;-8.640;2022-10-13T04:40:54;102217.41;;;15.67;100.00
65983;BME280;52740;40.620;-8.640;2022-10-13T04:42:54;102222.22;;;15.70;100.00
65983;BME280;52740;40.620;-8.640;2022-10-13T04:44:55;102217.81;;;15.65;100.00
65983;BME280;52740;40.620;-8.640;2022-10-13T04:46:57;102213.50;;;15.68;100.00
65983;BME280;52740;40.620;-8.640;2022-10-13T04:49:00;102217.41;;;15.67;100.00
65983;BME280;52740;40.620;-8.640;2022-10-13T04:51:10;102217.41;;;15.67;100.00
65983;BME280;52740;40.620;-8.640;2022-10-13T04:53:11;102211.13;;;15.66;100.00
65983;BME280;52740;40.620;-8.640;2022-10-13T04:55:12;102217.41;;;15.67;100.00
65983;BME280;52740;40.620;-8.640;2022-10-13T04:57:12;102219.75;;;15.65;100.00
65983;BME280;52740;40.620;-8.640;2022-10-13T04:59:13;102223.09;;;15.74;100.00
65983;BME280;52740;40.620;-8.640;2022-10-13T05:01:19;102223.81;;;15.71;100.00
65983;BME280;52740;40.620;-8.640;2022-10-13T05:03:22;102227.69;;;15.66;100.00
65983;BME280;52740;40.620;-8.640;2022-10-13T05:05:22;102226.31;;;15.57;100.00
65983;BME280;52740;40.620;-8.640;2022-10-13T05:07:23;102236.28;;;15.61;100.00
65983;BME280;52740;40.620;-8.640;2022-10-13T05:09:24;102234.72;;;15.64;100.00
65983;BME280;52740;40.620;-8.640;2022-10-13T05:11:26;102235.47;;;15.61;100.00
65983;BME280;52740;40.620;-8.640;2022-10-13T05:13:28;102247.22;;;15.58;100.00
65983;BME280;52740;40.620;-8.640;2022-10-13T05:15:30;102246.19;;;15.47;100.00
65983;BME280;52740;40.620;-8.640;2022-10-13T05:17:31;102241.81;;;15.46;100.00
65983;BME280;52740;40.620;-8.640;2022-10-13T05:19:32;102241.88;;;15.49;100.00
65983;BME280;52740;40.620;-8.640;2022-10-13T05:21:32;102238.25;;;15.45;100.00
65983;BME280;52740;40.620;-8.640;2022-10-13T05:23:33;102240.22;;;15.45;100.00
65983;BME280;52740;40.620;-8.640;2022-10-13T05:25:34;102231.06;;;15.41;100.00
65983;BME280;52740;40.620;-8.640;2022-10-13T05:27:35;102239.44;;;15.44;100.00
65983;BME280;52740;40.620;-8.640;2022-10-13T05:29:39;102232.84;;;15.49;100.00
65983;BME280;52740;40.620;-8.640;2022-10-13T05:31:39;102232.53;;;15.54;100.00
65983;BME280;52740;40.620;-8.640;2022-10-13T05:33:41;102243.59;;;15.54;100.00
65983;BME280;52740;40.620;-8.640;2022-10-13T05:35:41;102253.47;;;15.55;100.00
65983;BME280;52740;40.620;-8.640;2022-10-13T05:37:42;102258.59;;;15.53;100.00
65983;BME280;52740;40.620;-8.640;2022-10-13T05:39:43;102266.75;;;15.49;100.00
65983;BME280;52740;40.620;-8.640;2022-10-13T05:41:44;102268.22;;;15.43;100.00
65983;BME280;52740;40.620;-8.640;2022-10-13T05:43:57;102271.69;;;15.40;100.00
65983;BME280;52740;40.620;-8.640;2022-10-13T05:45:58;102267.16;;;15.32;100.00
65983;BME280;52740;40.620;-8.640;2022-10-13T05:47:59;102262.44;;;15.32;100.00
65983;BME280;52740;40.620;-8.640;2022-10-13T05:50:00;102260.84;;;15.31;100.00
65983;BME280;52740;40.620;-8.640;2022-10-13T05:52:02;102266.09;;;15.37;100.00
65983;BME280;52740;40.620;-8.640;2022-10-13T05:56:13;102252.94;;;15.49;100.00
65983;BME280;52740;40.620;-8.640;2022-10-13T05:58:15;102261.88;;;15.43;100.00
65983;BME280;52740;40.620;-8.640;2022-10-13T06:00:18;102262.75;;;15.47;100.00
65983;BME280;52740;40.620;-8.640;2022-10-13T06:02:21;102262.41;;;15.48;100.00
65983;BME280;52740;40.620;-8.640;2022-10-13T06:04:26;102268.38;;;15.50;100.00
65983;BME280;52740;40.620;-8.640;2022-10-13T06:06:29;102269.09;;;15.47;100.00
65983;BME280;52740;40.620;-8.640;2022-10-13T06:08:30;102268.91;;;15.40;100.00
65983;BME280;52740;40.620;-8.640;2022-10-13T06:10:31;102269.09;;;15.47;100.00
65983;BME280;52740;40.620;-8.640;2022-10-13T06:12:32;102254.81;;;15.45;100.00
65983;BME280;52740;40.620;-8.640;2022-10-13T06:14:33;102254.81;;;15.45;100.00
65983;BME280;52740;40.620;-8.640;2022-10-13T06:16:37;102258.47;;;15.49;100.00
65983;BME280;52740;40.620;-8.640;2022-10-13T06:18:37;102256.88;;;15.48;100.00
65983;BME280;52740;40.620;-8.640;2022-10-13T06:20:38;102255.63;;;15.46;100.00
65983;BME280;52740;40.620;-8.640;2022-10-13T06:22:39;102264.53;;;15.55;100.00
65983;BME280;52740;40.620;-8.640;2022-10-13T06:24:39;102264.47;;;15.51;100.00
65983;BME280;52740;40.620;-8.640;2022-10-13T06:26:42;102252.63;;;15.51;100.00
65983;BME280;52740;40.620;-8.640;2022-10-13T06:28:42;102258.13;;;15.51;100.00
65983;BME280;52740;40.620;-8.640;2022-10-13T06:30:44;102254.94;;;15.49;100.00
65983;BME280;52740;40.620;-8.640;2022-10-13T06:32:54;102260.81;;;15.47;100.00
65983;BME280;52740;40.620;-8.640;2022-10-13T06:34:55;102262.41;;;15.48;100.00
65983;BME280;52740;40.620;-8.640;2022-10-13T06:36:56;102263.56;;;15.47;100.00
65983;BME280;52740;40.620;-8.640;2022-10-13T06:38:57;102277.13;;;15.52;100.00
65983;BME280;52740;40.620;-8.640;2022-10-13T06:40:59;102274.78;;;15.54;100.00
65983;BME280;52740;40.620;-8.640;2022-10-13T06:43:02;102278.28;;;15.51;100.00
65983;BME280;52740;40.620;-8.640;2022-10-13T06:45:02;102284.13;;;15.50;100.00
65983;BME280;52740;40.620;-8.640;2022-10-13T06:47:04;102274.16;;;15.45;100.00
65983;BME280;52740;40.620;-8.640;2022-10-13T06:49:05;102270.16;;;15.43;100.00
65983;BME280;52740;40.620;-8.640;2022-10-13T06:51:10;102273.81;;;15.47;100.00
65983;BME280;52740;40.620;-8.640;2022-10-13T06:53:11;102282.19;;;15.50;100.00
65983;BME280;52740;40.620;-8.640;2022-10-13T06:55:12;102270.06;;;15.55;100.00
65983;BME280;52740;40.620;-8.640;2022-10-13T06:57:12;102272.09;;;15.58;100.00
65983;BME280;52740;40.620;-8.640;2022-10-13T06:59:13;102280.28;;;15.54;100.00
65983;BME280;52740;40.620;-8.640;2022-10-13T07:01:17;102277.53;;;15.54;100.00
65983;BME280;52740;40.620;-8.640;2022-10-13T07:03:18;102288.97;;;15.53;100.00
65983;BME280;52740;40.620;-8.640;2022-10-13T07:05:19;102290.53;;;15.54;100.00
65983;BME280;52740;40.620;-8.640;2022-10-13T07:07:20;102288.31;;;15.59;100.00
65983;BME280;52740;40.620;-8.640;2022-10-13T07:09:21;102279.66;;;15.61;100.00
65983;BME280;52740;40.620;-8.640;2022-10-13T07:11:22;102286.78;;;15.62;100.00
65983;BME280;52740;40.620;-8.640;2022-10-13T07:13:25;102290.19;;;15.55;100.00
65983;BME280;52740;40.620;-8.640;2022-10-13T07:15:25;102300.16;;;15.60;100.00
65983;BME280;52740;40.620;-8.640;2022-10-13T07:17:26;102302.56;;;15.61;100.00
65983;BME280;52740;40.620;-8.640;2022-10-13T07:19:27;102299.13;;;15.68;100.00
65983;BME280;52740;40.620;-8.640;2022-10-13T07:21:28;102301.91;;;15.68;100.00
65983;BME280;52740;40.620;-8.640;2022-10-13T07:23:28;102301.97;;;15.71;100.00
65983;BME280;52740;40.620;-8.640;2022-10-13T07:25:30;102302.69;;;15.68;100.00
65983;BME280;52740;40.620;-8.640;2022-10-13T07:27:31;102298.03;;;15.72;100.00
65983;BME280;52740;40.620;-8.640;2022-10-13T07:29:32;102295.63;;;15.71;100.00
65983;BME280;52740;40.620;-8.640;2022-10-13T07:31:33;102300.16;;;15.79;100.00
65983;BME280;52740;40.620;-8.640;2022-10-13T07:33:33;102298.03;;;15.72;100.00
65983;BME280;52740;40.620;-8.640;2022-10-13T07:35:40;102306.78;;;15.74;100.00
65983;BME280;52740;40.620;-8.640;2022-10-13T07:37:48;102309.16;;;15.76;100.00
65983;BME280;52740;40.620;-8.640;2022-10-13T07:39:51;102307.59;;;15.75;100.00
65983;BME280;52740;40.620;-8.640;2022-10-13T07:41:52;102310.75;;;15.77;100.00
65983;BME280;52740;40.620;-8.640;2022-10-13T07:43:54;102310.53;;;15.86;100.00
65983;BME280;52740;40.620;-8.640;2022-10-13T07:45:57;102321.66;;;15.89;100.00
65983;BME280;52740;40.620;-8.640;2022-10-13T07:48:00;102321.94;;;15.84;100.00
65983;BME280;52740;40.620;-8.640;2022-10-13T07:50:01;102320.44;;;15.87;100.00
65983;BME280;52740;40.620;-8.640;2022-10-13T07:52:03;102324.00;;;15.87;100.00
65983;BME280;52740;40.620;-8.640;2022-10-13T07:54:03;102330.19;;;16.00;100.00
65983;BME280;52740;40.620;-8.640;2022-10-13T07:56:08;102330.59;;;16.02;100.00
65983;BME280;52740;40.620;-8.640;2022-10-13T07:58:10;102340.19;;;16.08;100.00
65983;BME280;52740;40.620;-8.640;2022-10-13T08:00:11;102332.72;;;16.08;100.00
65983;BME280;52740;40.620;-8.640;2022-10-13T08:02:14;102345.84;;;16.15;100.00
65983;BME280;52740;40.620;-8.640;2022-10-13T08:04:15;102340.41;;;16.18;100.00
65983;BME280;52740;40.620;-8.640;2022-10-13T08:06:16;102343.66;;;16.24;100.00
65983;BME280;52740;40.620;-8.640;2022-10-13T08:08:17;102341.69;;;16.24;100.00
65983;BME280;52740;40.620;-8.640;2022-10-13T08:10:18;102346.44;;;16.24;100.00
65983;BME280;52740;40.620;-8.640;2022-10-13T08:12:18;102349.13;;;16.20;100.00
65983;BME280;52740;40.620;-8.640;2022-10-13T08:14:19;102351.72;;;16.10;100.00
65983;BME280;52740;40.620;-8.640;2022-10-13T08:16:21;102358.34;;;16.05;100.00
65983;BME280;52740;40.620;-8.640;2022-10-13T08:18:22;102361.97;;;16.09;100.00
65983;BME280;52740;40.620;-8.640;2022-10-13T08:20:22;102355.41;;;15.98;100.00
65983;BME280;52740;40.620;-8.640;2022-10-13T08:22:23;102355.97;;;16.07;100.00
65983;BME280;52740;40.620;-8.640;2022-10-13T08:24:25;102359.91;;;16.06;100.00
65983;BME280;52740;40.620;-8.640;2022-10-13T08:26:27;102365.94;;;16.12;100.00
65983;BME280;52740;40.620;-8.640;2022-10-13T08:28:28;102363.75;;;16.21;100.00
65983;BME280;52740;40.620;-8.640;2022-10-13T08:30:31;102362.38;;;16.31;100.00
65983;BME280;52740;40.620;-8.640;2022-10-13T08:32:48;102366.28;;;16.30;100.00
65983;BME280;52740;40.620;-8.640;2022-10-13T08:34:52;102362.38;;;16.31;100.00
65983;BME280;52740;40.620;-8.640;2022-10-13T08:36:53;102365.13;;;16.31;100.00
65983;BME280;52740;40.620;-8.640;2022-10-13T08:38:56;102369.50;;;16.32;100.00
65983;BME280;52740;40.620;-8.640;2022-10-13T08:40:57;102372.56;;;16.27;100.00
65983;BME280;52740;40.620;-8.640;2022-10-13T08:42:58;102381.56;;;16.23;100.00
65983;BME280;52740;40.620;-8.640;2022-10-13T08:45:01;102378.91;;;16.27;100.00
65983;BME280;52740;40.620;-8.640;2022-10-13T08:48:02;102377.81;;;16.12;100.00
65983;BME280;52740;40.620;-8.640;2022-10-13T08:49:46;102385.22;;;16.08;100.00
65983;BME280;52740;40.620;-8.640;2022-10-13T08:51:47;102384.44;;;16.08;100.00
65983;BME280;52740;40.620;-8.640;2022-10-13T08:53:48;102394.34;;;16.09;100.00
65983;BME280;52740;40.620;-8.640;2022-10-13T08:58:36;102391.13;;;16.07;100.00
65983;BME280;52740;40.620;-8.640;2022-10-13T09:00:41;102397.63;;;16.14;100.00
65983;BME280;52740;40.620;-8.640;2022-10-13T09:02:45;102401.09;;;16.11;100.00
65983;BME280;52740;40.620;-8.640;2022-10-13T09:05:04;102395.84;;;16.06;100.00
65983;BME280;52740;40.620;-8.640;2022-10-13T09:07:14;102390.03;;;16.11;100.00
65983;BME280;52740;40.620;-8.640;2022-10-13T09:09:15;102396.59;;;16.22;100.00
65983;BME280;52740;40.620;-8.640;2022-10-13T09:11:18;102397.44;;;16.27;100.00
65983;BME280;52740;40.620;-8.640;2022-10-13T09:13:20;102397.81;;;16.25;100.00
65983;BME280;52740;40.620;-8.640;2022-10-13T09:15:21;102401.59;;;16.17;100.00
65983;BME280;52740;40.620;-8.640;2022-10-13T09:17:25;102401.03;;;16.27;100.00
65983;BME280;52740;40.620;-8.640;2022-10-13T09:19:29;102403.25;;;16.41;100.00
65983;BME280;52740;40.620;-8.640;2022-10-13T09:21:31;102402.44;;;16.59;100.00
65983;BME280;52740;40.620;-8.640;2022-10-13T09:23:32;102380.81;;;16.65;100.00
65983;BME280;52740;40.620;-8.640;2022-10-13T09:25:44;102391.63;;;16.74;100.00
65983;BME280;52740;40.620;-8.640;2022-10-13T09:27:57;102376.81;;;16.85;100.00
65983;BME280;52740;40.620;-8.640;2022-10-13T09:32:34;102377.19;;;17.33;100.00
65983;BME280;52740;40.620;-8.640;2022-10-13T09:34:35;102383.34;;;17.23;100.00
65983;BME280;52740;40.620;-8.640;2022-10-13T09:36:54;102376.78;;;17.34;100.00
65983;BME280;52740;40.620;-8.640;2022-10-13T09:39:13;102392.25;;;17.35;100.00
65983;BME280;52740;40.620;-8.640;2022-10-13T09:41:20;102389.75;;;17.53;100.00
65983;BME280;52740;40.620;-8.640;2022-10-13T09:43:32;102385.81;;;17.54;100.00
65983;BME280;52740;40.620;-8.640;2022-10-13T09:45:33;102381.88;;;17.55;100.00
65983;BME280;52740;40.620;-8.640;2022-10-13T09:47:34;102376.97;;;17.45;100.00
65983;BME280;52740;40.620;-8.640;2022-10-13T09:49:40;102379.28;;;17.43;100.00
65983;BME280;52740;40.620;-8.640;2022-10-13T09:51:43;102371.44;;;17.45;100.00
65983;BME280;52740;40.620;-8.640;2022-10-13T09:53:53;102381.69;;;17.44;100.00
65983;BME280;52740;40.620;-8.640;2022-10-13T09:58:45;102381.75;;;17.48;100.00
65983;BME280;52740;40.620;-8.640;2022-10-13T10:00:50;102387.81;;;17.57;100.00
65983;BME280;52740;40.620;-8.640;2022-10-13T10:03:03;102389.13;;;17.63;100.00
65983;BME280;52740;40.620;-8.640;2022-10-13T10:07:29;102390.59;;;17.57;100.00
65983;BME280;52740;40.620;-8.640;2022-10-13T10:09:48;102389.13;;;17.63;100.00
65983;BME280;52740;40.620;-8.640;2022-10-13T10:11:52;102384.09;;;17.46;100.00
65983;BME280;52740;40.620;-8.640;2022-10-13T10:13:56;102390.81;;;17.45;100.00
65983;BME280;52740;40.620;-8.640;2022-10-13T10:16:06;102392.69;;;17.37;100.00
65983;BME280;52740;40.620;-8.640;2022-10-13T10:18:16;102388.81;;;17.42;100.00
65983;BME280;52740;40.620;-8.640;2022-10-13T10:22:58;102383.44;;;17.56;100.00
65983;BME280;52740;40.620;-8.640;2022-10-13T10:25:31;102382.28;;;17.57;100.00
65983;BME280;52740;40.620;-8.640;2022-10-13T10:27:52;102370.84;;;17.59;100.00
65983;BME280;52740;40.620;-8.640;2022-10-13T10:30:04;102366.75;;;17.79;100.00
65983;BME280;52740;40.620;-8.640;2022-10-13T10:36:55;102353.34;;;18.18;100.00
65983;BME280;52740;40.620;-8.640;2022-10-13T10:39:18;102353.34;;;18.18;100.00
65983;BME280;52740;40.620;-8.640;2022-10-13T10:44:01;102353.56;;;18.39;100.00
65983;BME280;52740;40.620;-8.640;2022-10-13T10:46:14;102361.59;;;18.47;100.00
65983;BME280;52740;40.620;-8.640;2022-10-13T10:48:22;102361.94;;;18.79;100.00
65983;BME280;52740;40.620;-8.640;2022-10-13T10:50:24;102365.56;;;18.87;100.00
65983;BME280;52740;40.620;-8.640;2022-10-13T10:55:19;102362.44;;;18.96;100.00
65983;BME280;52740;40.620;-8.640;2022-10-13T10:57:50;102364.03;;;18.93;100.00
65983;BME280;52740;40.620;-8.640;2022-10-13T11:00:11;102363.56;;;18.84;100.00
65983;BME280;52740;40.620;-8.640;2022-10-13T11:02:33;102359.16;;;18.79;100.00
65983;BME280;52740;40.620;-8.640;2022-10-13T11:04:42;102359.63;;;18.88;100.00
65983;BME280;52740;40.620;-8.640;2022-10-13T11:06:44;102362.22;;;18.67;100.00
65983;BME280;52740;40.620;-8.640;2022-10-13T11:08:47;102360.84;;;18.91;100.00
65983;BME280;52740;40.620;-8.640;2022-10-13T11:11:30;102359.06;;;19.20;100.00
65983;BME280;52740;40.620;-8.640;2022-10-13T11:19:02;102354.44;;;19.42;100.00
65983;BME280;52740;40.620;-8.640;2022-10-13T11:21:06;102342.44;;;19.27;100.00
65983;BME280;52740;40.620;-8.640;2022-10-13T11:23:30;102347.63;;;19.28;100.00
65983;BME280;52740;40.620;-8.640;2022-10-13T11:27:43;102350.25;;;19.07;100.00
65983;BME280;52740;40.620;-8.640;2022-10-13T11:31:53;102344.25;;;19.02;100.00
65983;BME280;52740;40.620;-8.640;2022-10-13T11:34:00;102339.97;;;19.11;100.00
65983;BME280;52740;40.620;-8.640;2022-10-13T11:36:36;102354.00;;;19.36;100.00